sensor_id;sensor_type;location;lat;lon;timestamp;temperature;humidity
14210;DHT22;7188;56.070;12.698;2023-07-13T00:00:05;16.00;1.00
14210;DHT22;7188;56.070;12.698;2023-07-13T00:02:35;16.00;1.00
14210;DHT22;7188;56.070;12.698;2023-07-13T00:05:01;16.00;1.00
14210;DHT22;7188;56.070;12.698;2023-07-13T00:07:26;16.00;1.00
14210;DHT22;7188;56.070;12.698;2023-07-13T00:09:52;15.90;1.00
14210;DHT22;7188;56.070;12.698;2023-07-13T00:12:28;15.90;20.50
14210;DHT22;7188;56.070;12.698;2023-07-13T00:14:59;15.90;1.00
14210;DHT22;7188;56.070;12.698;2023-07-13T00:17:26;15.80;8.40
14210;DHT22;7188;56.070;12.698;2023-07-13T00:19:52;15.90;99.90
14210;DHT22;7188;56.070;12.698;2023-07-13T00:22:19;15.90;99.90
14210;DHT22;7188;56.070;12.698;2023-07-13T00:24:44;15.90;99.90
14210;DHT22;7188;56.070;12.698;2023-07-13T00:27:11;15.80;1.00
14210;DHT22;7188;56.070;12.698;2023-07-13T00:29:37;15.70;76.10
14210;DHT22;7188;56.070;12.698;2023-07-13T00:32:04;15.70;99.90
14210;DHT22;7188;56.070;12.698;2023-07-13T00:34:30;15.70;99.90
14210;DHT22;7188;56.070;12.698;2023-07-13T00:36:56;15.60;99.90
14210;DHT22;7188;56.070;12.698;2023-07-13T00:39:21;15.60;99.90
14210;DHT22;7188;56.070;12.698;2023-07-13T00:41:48;15.50;99.90
14210;DHT22;7188;56.070;12.698;2023-07-13T00:44:15;15.50;99.90
14210;DHT22;7188;56.070;12.698;2023-07-13T00:46:41;15.50;99.90
14210;DHT22;7188;56.070;12.698;2023-07-13T00:49:10;15.40;99.90
14210;DHT22;7188;56.070;12.698;2023-07-13T00:51:52;15.40;99.90
14210;DHT22;7188;56.070;12.698;2023-07-13T00:54:29;15.40;99.90
14210;DHT22;7188;56.070;12.698;2023-07-13T00:56:59;15.30;99.90
14210;DHT22;7188;56.070;12.698;2023-07-13T00:59:26;15.30;99.90
14210;DHT22;7188;56.070;12.698;2023-07-13T01:01:52;15.40;99.90
14210;DHT22;7188;56.070;12.698;2023-07-13T01:04:18;15.30;99.90
14210;DHT22;7188;56.070;12.698;2023-07-13T01:06:45;15.30;99.90
14210;DHT22;7188;56.070;12.698;2023-07-13T01:09:12;15.20;99.90
14210;DHT22;7188;56.070;12.698;2023-07-13T01:11:38;15.20;99.90
14210;DHT22;7188;56.070;12.698;2023-07-13T01:14:04;15.30;99.90
14210;DHT22;7188;56.070;12.698;2023-07-13T01:16:35;15.20;99.90
14210;DHT22;7188;56.070;12.698;2023-07-13T01:19:05;15.20;99.90
14210;DHT22;7188;56.070;12.698;2023-07-13T01:21:37;15.20;99.90
14210;DHT22;7188;56.070;12.698;2023-07-13T01:24:08;15.10;99.90
14210;DHT22;7188;56.070;12.698;2023-07-13T01:26:34;15.10;99.90
14210;DHT22;7188;56.070;12.698;2023-07-13T01:29:00;15.10;99.90
14210;DHT22;7188;56.070;12.698;2023-07-13T01:31:25;15.00;99.90
14210;DHT22;7188;56.070;12.698;2023-07-13T01:33:51;15.00;99.90
14210;DHT22;7188;56.070;12.698;2023-07-13T01:36:17;15.00;99.90
14210;DHT22;7188;56.070;12.698;2023-07-13T01:38:43;15.00;99.90
14210;DHT22;7188;56.070;12.698;2023-07-13T01:41:08;15.00;99.90
14210;DHT22;7188;56.070;12.698;2023-07-13T01:43:34;15.00;99.90
14210;DHT22;7188;56.070;12.698;2023-07-13T01:45:59;14.90;99.90
14210;DHT22;7188;56.070;12.698;2023-07-13T01:48:25;14.90;99.90
14210;DHT22;7188;56.070;12.698;2023-07-13T01:50:51;14.90;99.90
14210;DHT22;7188;56.070;12.698;2023-07-13T01:53:16;14.90;99.90
14210;DHT22;7188;56.070;12.698;2023-07-13T01:55:42;14.90;99.90
14210;DHT22;7188;56.070;12.698;2023-07-13T01:58:08;14.90;99.90
14210;DHT22;7188;56.070;12.698;2023-07-13T02:00:33;14.90;99.90
14210;DHT22;7188;56.070;12.698;2023-07-13T02:02:59;14.90;99.90
14210;DHT22;7188;56.070;12.698;2023-07-13T02:05:25;14.90;99.90
14210;DHT22;7188;56.070;12.698;2023-07-13T02:07:50;14.90;99.90
14210;DHT22;7188;56.070;12.698;2023-07-13T02:10:16;14.90;99.90
14210;DHT22;7188;56.070;12.698;2023-07-13T02:12:42;14.80;99.90
14210;DHT22;7188;56.070;12.698;2023-07-13T02:15:08;14.80;99.90
14210;DHT22;7188;56.070;12.698;2023-07-13T02:17:35;14.80;99.90
14210;DHT22;7188;56.070;12.698;2023-07-13T02:20:02;14.80;99.90
14210;DHT22;7188;56.070;12.698;2023-07-13T02:22:28;14.80;99.90
14210;DHT22;7188;56.070;12.698;2023-07-13T02:24:53;14.70;99.90
14210;DHT22;7188;56.070;12.698;2023-07-13T02:27:19;14.70;99.90
14210;DHT22;7188;56.070;12.698;2023-07-13T02:29:45;14.80;99.90
14210;DHT22;7188;56.070;12.698;2023-07-13T02:32:10;14.70;99.90
14210;DHT22;7188;56.070;12.698;2023-07-13T02:34:36;14.80;99.90
14210;DHT22;7188;56.070;12.698;2023-07-13T02:37:02;14.70;99.90
14210;DHT22;7188;56.070;12.698;2023-07-13T02:39:28;14.70;99.90
14210;DHT22;7188;56.070;12.698;2023-07-13T02:41:53;14.80;99.90
14210;DHT22;7188;56.070;12.698;2023-07-13T02:44:19;14.70;99.90
14210;DHT22;7188;56.070;12.698;2023-07-13T02:46:45;14.80;99.90
14210;DHT22;7188;56.070;12.698;2023-07-13T02:49:10;14.80;99.90
14210;DHT22;7188;56.070;12.698;2023-07-13T02:51:36;14.80;99.90
14210;DHT22;7188;56.070;12.698;2023-07-13T02:54:03;14.70;99.90
14210;DHT22;7188;56.070;12.698;2023-07-13T02:56:31;14.80;99.90
14210;DHT22;7188;56.070;12.698;2023-07-13T02:58:57;14.80;99.90
14210;DHT22;7188;56.070;12.698;2023-07-13T03:01:23;14.90;99.90
14210;DHT22;7188;56.070;12.698;2023-07-13T03:03:50;14.90;99.90
14210;DHT22;7188;56.070;12.698;2023-07-13T03:06:16;14.90;99.90
14210;DHT22;7188;56.070;12.698;2023-07-13T03:08:43;15.00;99.90
14210;DHT22;7188;56.070;12.698;2023-07-13T03:11:13;15.10;99.90
14210;DHT22;7188;56.070;12.698;2023-07-13T03:13:40;15.20;99.90
14210;DHT22;7188;56.070;12.698;2023-07-13T03:16:07;15.40;99.90
14210;DHT22;7188;56.070;12.698;2023-07-13T03:18:33;15.50;99.90
14210;DHT22;7188;56.070;12.698;2023-07-13T03:20:59;15.70;99.90
14210;DHT22;7188;56.070;12.698;2023-07-13T03:23:25;15.80;99.90
14210;DHT22;7188;56.070;12.698;2023-07-13T03:26:05;15.80;99.90
14210;DHT22;7188;56.070;12.698;2023-07-13T03:28:31;15.80;99.90
14210;DHT22;7188;56.070;12.698;2023-07-13T03:31:18;15.70;99.90
14210;DHT22;7188;56.070;12.698;2023-07-13T03:33:44;15.70;99.90
14210;DHT22;7188;56.070;12.698;2023-07-13T03:36:15;15.70;99.90
14210;DHT22;7188;56.070;12.698;2023-07-13T03:38:47;15.70;99.90
14210;DHT22;7188;56.070;12.698;2023-07-13T03:41:14;15.70;99.90
14210;DHT22;7188;56.070;12.698;2023-07-13T03:43:39;15.70;99.90
14210;DHT22;7188;56.070;12.698;2023-07-13T03:46:05;15.70;99.90
14210;DHT22;7188;56.070;12.698;2023-07-13T03:48:31;15.70;99.90
14210;DHT22;7188;56.070;12.698;2023-07-13T03:50:56;15.70;99.90
14210;DHT22;7188;56.070;12.698;2023-07-13T03:53:22;15.70;99.90
14210;DHT22;7188;56.070;12.698;2023-07-13T03:55:47;15.70;99.90
14210;DHT22;7188;56.070;12.698;2023-07-13T03:58:27;15.70;99.90
14210;DHT22;7188;56.070;12.698;2023-07-13T04:00:57;15.70;99.90
14210;DHT22;7188;56.070;12.698;2023-07-13T04:03:23;15.70;99.90
14210;DHT22;7188;56.070;12.698;2023-07-13T04:05:49;15.80;99.90
14210;DHT22;7188;56.070;12.698;2023-07-13T04:08:16;15.80;99.90
14210;DHT22;7188;56.070;12.698;2023-07-13T04:10:42;15.80;99.90
14210;DHT22;7188;56.070;12.698;2023-07-13T04:13:08;15.90;99.90
14210;DHT22;7188;56.070;12.698;2023-07-13T04:15:34;16.00;99.90
14210;DHT22;7188;56.070;12.698;2023-07-13T04:17:59;16.00;99.90
14210;DHT22;7188;56.070;12.698;2023-07-13T04:20:26;16.00;99.90
14210;DHT22;7188;56.070;12.698;2023-07-13T04:22:52;16.00;99.90
14210;DHT22;7188;56.070;12.698;2023-07-13T04:25:20;16.10;99.90
14210;DHT22;7188;56.070;12.698;2023-07-13T04:27:46;16.20;99.90
14210;DHT22;7188;56.070;12.698;2023-07-13T04:30:12;16.30;99.90
14210;DHT22;7188;56.070;12.698;2023-07-13T04:32:38;16.30;99.90
14210;DHT22;7188;56.070;12.698;2023-07-13T04:35:04;16.30;99.90
14210;DHT22;7188;56.070;12.698;2023-07-13T04:37:30;16.40;99.90
14210;DHT22;7188;56.070;12.698;2023-07-13T04:39:56;16.50;99.90
14210;DHT22;7188;56.070;12.698;2023-07-13T04:42:22;16.70;99.90
14210;DHT22;7188;56.070;12.698;2023-07-13T04:44:51;16.90;99.90
14210;DHT22;7188;56.070;12.698;2023-07-13T04:47:20;17.10;99.90
14210;DHT22;7188;56.070;12.698;2023-07-13T04:49:46;17.40;99.90
14210;DHT22;7188;56.070;12.698;2023-07-13T04:52:12;17.80;1.00
14210;DHT22;7188;56.070;12.698;2023-07-13T04:54:38;18.00;99.90
14210;DHT22;7188;56.070;12.698;2023-07-13T04:57:05;18.20;99.90
14210;DHT22;7188;56.070;12.698;2023-07-13T04:59:35;18.30;99.90
14210;DHT22;7188;56.070;12.698;2023-07-13T05:02:00;18.30;99.90
14210;DHT22;7188;56.070;12.698;2023-07-13T05:04:27;18.40;99.90
14210;DHT22;7188;56.070;12.698;2023-07-13T05:06:53;18.30;1.00
14210;DHT22;7188;56.070;12.698;2023-07-13T05:09:19;18.10;1.00
14210;DHT22;7188;56.070;12.698;2023-07-13T05:11:45;18.00;1.00
14210;DHT22;7188;56.070;12.698;2023-07-13T05:14:10;17.90;99.90
14210;DHT22;7188;56.070;12.698;2023-07-13T05:16:36;18.00;99.90
14210;DHT22;7188;56.070;12.698;2023-07-13T05:19:02;18.20;99.90
14210;DHT22;7188;56.070;12.698;2023-07-13T05:21:28;18.30;1.00
14210;DHT22;7188;56.070;12.698;2023-07-13T05:23:54;18.50;1.00
14210;DHT22;7188;56.070;12.698;2023-07-13T05:26:20;18.50;99.90
14210;DHT22;7188;56.070;12.698;2023-07-13T05:28:46;18.70;99.90
14210;DHT22;7188;56.070;12.698;2023-07-13T05:31:12;18.70;2.90
14210;DHT22;7188;56.070;12.698;2023-07-13T05:33:39;18.70;1.00
14210;DHT22;7188;56.070;12.698;2023-07-13T05:36:04;18.80;99.90
14210;DHT22;7188;56.070;12.698;2023-07-13T05:38:30;19.00;1.00
14210;DHT22;7188;56.070;12.698;2023-07-13T05:40:57;19.00;99.90
14210;DHT22;7188;56.070;12.698;2023-07-13T05:43:23;19.00;1.00
14210;DHT22;7188;56.070;12.698;2023-07-13T05:45:49;19.20;1.00
14210;DHT22;7188;56.070;12.698;2023-07-13T05:48:16;19.50;1.00
14210;DHT22;7188;56.070;12.698;2023-07-13T05:50:42;19.60;63.10
14210;DHT22;7188;56.070;12.698;2023-07-13T05:53:07;19.60;1.00
14210;DHT22;7188;56.070;12.698;2023-07-13T05:55:33;19.50;1.00
14210;DHT22;7188;56.070;12.698;2023-07-13T05:58:00;19.40;1.00
14210;DHT22;7188;56.070;12.698;2023-07-13T06:00:26;19.30;1.00
14210;DHT22;7188;56.070;12.698;2023-07-13T06:02:52;19.10;91.80
14210;DHT22;7188;56.070;12.698;2023-07-13T06:05:18;18.90;99.90
14210;DHT22;7188;56.070;12.698;2023-07-13T06:07:43;18.80;99.90
14210;DHT22;7188;56.070;12.698;2023-07-13T06:10:10;18.70;1.00
14210;DHT22;7188;56.070;12.698;2023-07-13T06:12:35;18.80;1.00
14210;DHT22;7188;56.070;12.698;2023-07-13T06:15:01;18.90;1.00
14210;DHT22;7188;56.070;12.698;2023-07-13T06:17:28;18.90;99.90
14210;DHT22;7188;56.070;12.698;2023-07-13T06:19:54;19.00;1.00
14210;DHT22;7188;56.070;12.698;2023-07-13T06:22:19;19.10;99.90
14210;DHT22;7188;56.070;12.698;2023-07-13T06:24:45;19.40;99.90
14210;DHT22;7188;56.070;12.698;2023-07-13T06:27:10;19.50;10.60
14210;DHT22;7188;56.070;12.698;2023-07-13T06:29:36;19.80;1.00
14210;DHT22;7188;56.070;12.698;2023-07-13T06:32:02;20.00;1.00
14210;DHT22;7188;56.070;12.698;2023-07-13T06:34:27;20.10;99.90
14210;DHT22;7188;56.070;12.698;2023-07-13T06:36:53;20.00;99.90
14210;DHT22;7188;56.070;12.698;2023-07-13T06:39:19;19.90;99.90
14210;DHT22;7188;56.070;12.698;2023-07-13T06:41:44;19.70;99.90
14210;DHT22;7188;56.070;12.698;2023-07-13T06:44:10;19.50;1.00
14210;DHT22;7188;56.070;12.698;2023-07-13T06:46:35;19.30;1.00
14210;DHT22;7188;56.070;12.698;2023-07-13T06:49:01;19.20;1.00
14210;DHT22;7188;56.070;12.698;2023-07-13T06:51:27;19.00;99.90
14210;DHT22;7188;56.070;12.698;2023-07-13T06:53:53;18.90;1.00
14210;DHT22;7188;56.070;12.698;2023-07-13T06:56:19;18.80;1.00
14210;DHT22;7188;56.070;12.698;2023-07-13T06:58:45;18.60;1.00
14210;DHT22;7188;56.070;12.698;2023-07-13T07:01:11;18.60;1.00
14210;DHT22;7188;56.070;12.698;2023-07-13T07:03:36;18.50;1.00
14210;DHT22;7188;56.070;12.698;2023-07-13T07:06:11;18.60;99.90
14210;DHT22;7188;56.070;12.698;2023-07-13T07:08:37;18.80;1.00
14210;DHT22;7188;56.070;12.698;2023-07-13T07:11:03;19.20;99.90
14210;DHT22;7188;56.070;12.698;2023-07-13T07:13:28;19.50;1.00
14210;DHT22;7188;56.070;12.698;2023-07-13T07:15:55;19.80;99.90
14210;DHT22;7188;56.070;12.698;2023-07-13T07:18:21;19.90;1.00
14210;DHT22;7188;56.070;12.698;2023-07-13T07:20:46;20.00;1.00
14210;DHT22;7188;56.070;12.698;2023-07-13T07:23:14;20.30;99.90
14210;DHT22;7188;56.070;12.698;2023-07-13T07:25:40;20.40;99.90
14210;DHT22;7188;56.070;12.698;2023-07-13T07:28:08;20.70;29.90
14210;DHT22;7188;56.070;12.698;2023-07-13T07:30:35;20.90;1.00
14210;DHT22;7188;56.070;12.698;2023-07-13T07:33:00;20.90;1.00
14210;DHT22;7188;56.070;12.698;2023-07-13T07:35:28;20.80;1.00
14210;DHT22;7188;56.070;12.698;2023-07-13T07:37:53;21.00;1.00
14210;DHT22;7188;56.070;12.698;2023-07-13T07:40:19;21.10;1.00
14210;DHT22;7188;56.070;12.698;2023-07-13T07:42:45;21.30;1.00
14210;DHT22;7188;56.070;12.698;2023-07-13T07:45:12;21.40;99.90
14210;DHT22;7188;56.070;12.698;2023-07-13T07:47:37;21.40;99.90
14210;DHT22;7188;56.070;12.698;2023-07-13T07:50:04;21.50;99.90
14210;DHT22;7188;56.070;12.698;2023-07-13T07:52:30;21.60;99.90
14210;DHT22;7188;56.070;12.698;2023-07-13T07:54:55;21.80;7.00
14210;DHT22;7188;56.070;12.698;2023-07-13T07:57:21;21.90;31.50
14210;DHT22;7188;56.070;12.698;2023-07-13T07:59:47;22.00;1.00
14210;DHT22;7188;56.070;12.698;2023-07-13T08:02:13;22.30;1.00
14210;DHT22;7188;56.070;12.698;2023-07-13T08:04:39;22.20;1.00
14210;DHT22;7188;56.070;12.698;2023-07-13T08:07:05;22.30;1.00
14210;DHT22;7188;56.070;12.698;2023-07-13T08:09:32;22.20;1.00
14210;DHT22;7188;56.070;12.698;2023-07-13T08:11:58;22.20;1.00
14210;DHT22;7188;56.070;12.698;2023-07-13T08:14:23;22.10;1.00
14210;DHT22;7188;56.070;12.698;2023-07-13T08:16:49;22.00;1.00
14210;DHT22;7188;56.070;12.698;2023-07-13T08:19:15;21.60;1.00
14210;DHT22;7188;56.070;12.698;2023-07-13T08:21:41;21.40;1.00
14210;DHT22;7188;56.070;12.698;2023-07-13T08:24:09;21.10;95.90
14210;DHT22;7188;56.070;12.698;2023-07-13T08:26:35;21.10;1.00
14210;DHT22;7188;56.070;12.698;2023-07-13T08:29:01;20.80;1.00
14210;DHT22;7188;56.070;12.698;2023-07-13T08:31:29;20.60;1.00
14210;DHT22;7188;56.070;12.698;2023-07-13T08:33:54;20.40;1.00
14210;DHT22;7188;56.070;12.698;2023-07-13T08:36:48;20.30;99.90
14210;DHT22;7188;56.070;12.698;2023-07-13T08:39:14;20.10;99.90
14210;DHT22;7188;56.070;12.698;2023-07-13T08:41:39;19.90;1.00
14210;DHT22;7188;56.070;12.698;2023-07-13T08:44:18;19.70;99.90
14210;DHT22;7188;56.070;12.698;2023-07-13T08:46:48;19.50;99.90
14210;DHT22;7188;56.070;12.698;2023-07-13T08:49:18;19.30;99.90
14210;DHT22;7188;56.070;12.698;2023-07-13T08:51:49;19.30;1.00
14210;DHT22;7188;56.070;12.698;2023-07-13T08:56:49;19.20;1.00
14210;DHT22;7188;56.070;12.698;2023-07-13T08:59:21;19.40;1.00
14210;DHT22;7188;56.070;12.698;2023-07-13T09:04:37;20.20;1.00
14210;DHT22;7188;56.070;12.698;2023-07-13T09:07:12;20.50;1.00
14210;DHT22;7188;56.070;12.698;2023-07-13T09:10:07;20.90;1.00
14210;DHT22;7188;56.070;12.698;2023-07-13T09:15:30;21.10;1.00
14210;DHT22;7188;56.070;12.698;2023-07-13T09:18:00;21.00;1.00
14210;DHT22;7188;56.070;12.698;2023-07-13T09:20:45;21.00;1.00
14210;DHT22;7188;56.070;12.698;2023-07-13T09:23:15;21.00;1.00
14210;DHT22;7188;56.070;12.698;2023-07-13T09:25:48;20.80;99.90
14210;DHT22;7188;56.070;12.698;2023-07-13T09:28:26;20.80;99.90
14210;DHT22;7188;56.070;12.698;2023-07-13T09:31:33;20.80;99.90
14210;DHT22;7188;56.070;12.698;2023-07-13T09:33:51;20.90;99.90
14210;DHT22;7188;56.070;12.698;2023-07-13T09:42:01;21.00;99.90
14210;DHT22;7188;56.070;12.698;2023-07-13T09:44:35;21.00;99.90
14210;DHT22;7188;56.070;12.698;2023-07-13T09:47:01;21.00;99.90
14210;DHT22;7188;56.070;12.698;2023-07-13T09:49:31;20.90;99.90
14210;DHT22;7188;56.070;12.698;2023-07-13T09:52:11;20.90;99.50
14210;DHT22;7188;56.070;12.698;2023-07-13T09:54:38;20.90;99.90
14210;DHT22;7188;56.070;12.698;2023-07-13T09:57:17;20.90;99.90
14210;DHT22;7188;56.070;12.698;2023-07-13T09:59:48;20.90;99.90
14210;DHT22;7188;56.070;12.698;2023-07-13T10:02:35;20.90;99.90
14210;DHT22;7188;56.070;12.698;2023-07-13T10:05:06;21.00;95.70
14210;DHT22;7188;56.070;12.698;2023-07-13T10:07:38;21.10;97.70
14210;DHT22;7188;56.070;12.698;2023-07-13T10:10:14;21.00;1.00
14210;DHT22;7188;56.070;12.698;2023-07-13T10:12:40;20.90;17.00
14210;DHT22;7188;56.070;12.698;2023-07-13T10:15:15;20.90;84.40
14210;DHT22;7188;56.070;12.698;2023-07-13T10:17:41;21.00;99.90
14210;DHT22;7188;56.070;12.698;2023-07-13T10:20:07;21.00;38.30
14210;DHT22;7188;56.070;12.698;2023-07-13T10:25:24;21.00;99.90
14210;DHT22;7188;56.070;12.698;2023-07-13T10:27:57;20.90;99.90
14210;DHT22;7188;56.070;12.698;2023-07-13T10:30:34;20.70;1.00
14210;DHT22;7188;56.070;12.698;2023-07-13T10:33:10;20.60;99.90
14210;DHT22;7188;56.070;12.698;2023-07-13T10:35:40;20.60;1.00
14210;DHT22;7188;56.070;12.698;2023-07-13T10:38:18;21.10;1.00
14210;DHT22;7188;56.070;12.698;2023-07-13T10:41:03;21.60;99.90
14210;DHT22;7188;56.070;12.698;2023-07-13T10:43:42;22.10;99.90
14210;DHT22;7188;56.070;12.698;2023-07-13T10:46:12;22.40;99.90
14210;DHT22;7188;56.070;12.698;2023-07-13T10:48:40;22.60;66.90
14210;DHT22;7188;56.070;12.698;2023-07-13T10:51:08;22.60;36.30
14210;DHT22;7188;56.070;12.698;2023-07-13T10:53:37;22.60;1.00
14210;DHT22;7188;56.070;12.698;2023-07-13T10:56:23;22.70;1.00
14210;DHT22;7188;56.070;12.698;2023-07-13T10:59:25;22.70;1.00
14210;DHT22;7188;56.070;12.698;2023-07-13T11:04:48;22.60;1.00
14210;DHT22;7188;56.070;12.698;2023-07-13T11:07:27;22.70;1.00
14210;DHT22;7188;56.070;12.698;2023-07-13T11:09:55;22.90;1.00
14210;DHT22;7188;56.070;12.698;2023-07-13T11:17:33;22.90;1.00
14210;DHT22;7188;56.070;12.698;2023-07-13T11:20:20;22.90;1.00
14210;DHT22;7188;56.070;12.698;2023-07-13T11:22:53;22.90;1.00
14210;DHT22;7188;56.070;12.698;2023-07-13T11:25:50;22.90;1.00
14210;DHT22;7188;56.070;12.698;2023-07-13T11:28:20;22.80;1.00
14210;DHT22;7188;56.070;12.698;2023-07-13T11:30:50;22.80;1.00
14210;DHT22;7188;56.070;12.698;2023-07-13T11:36:28;22.60;1.00
14210;DHT22;7188;56.070;12.698;2023-07-13T11:38:57;22.60;1.00
14210;DHT22;7188;56.070;12.698;2023-07-13T11:41:28;22.70;1.00
14210;DHT22;7188;56.070;12.698;2023-07-13T11:44:06;22.70;1.00
14210;DHT22;7188;56.070;12.698;2023-07-13T11:46:33;22.70;1.00
14210;DHT22;7188;56.070;12.698;2023-07-13T11:48:58;22.80;1.00
14210;DHT22;7188;56.070;12.698;2023-07-13T11:51:34;22.80;1.00
14210;DHT22;7188;56.070;12.698;2023-07-13T11:54:11;22.60;1.00
14210;DHT22;7188;56.070;12.698;2023-07-13T11:56:39;22.40;1.00
14210;DHT22;7188;56.070;12.698;2023-07-13T11:59:07;22.40;1.00
14210;DHT22;7188;56.070;12.698;2023-07-13T12:01:34;22.40;1.00
14210;DHT22;7188;56.070;12.698;2023-07-13T12:04:03;22.30;1.00
14210;DHT22;7188;56.070;12.698;2023-07-13T12:06:34;22.30;1.00
14210;DHT22;7188;56.070;12.698;2023-07-13T12:09:09;22.40;1.00
14210;DHT22;7188;56.070;12.698;2023-07-13T12:11:40;22.60;1.00
14210;DHT22;7188;56.070;12.698;2023-07-13T12:14:14;22.90;1.00
14210;DHT22;7188;56.070;12.698;2023-07-13T12:16:41;23.20;1.00
14210;DHT22;7188;56.070;12.698;2023-07-13T12:19:31;23.20;1.00
14210;DHT22;7188;56.070;12.698;2023-07-13T12:21:57;23.10;1.00
14210;DHT22;7188;56.070;12.698;2023-07-13T12:24:24;22.90;1.00
14210;DHT22;7188;56.070;12.698;2023-07-13T12:26:53;22.50;1.00
14210;DHT22;7188;56.070;12.698;2023-07-13T12:29:19;22.00;1.00
14210;DHT22;7188;56.070;12.698;2023-07-13T12:31:48;21.40;1.00
14210;DHT22;7188;56.070;12.698;2023-07-13T12:34:20;21.20;18.30
14210;DHT22;7188;56.070;12.698;2023-07-13T12:36:53;21.20;71.80
14210;DHT22;7188;56.070;12.698;2023-07-13T12:39:25;21.30;1.00
14210;DHT22;7188;56.070;12.698;2023-07-13T12:41:53;21.50;1.00
14210;DHT22;7188;56.070;12.698;2023-07-13T12:44:27;21.60;1.00
14210;DHT22;7188;56.070;12.698;2023-07-13T12:47:04;21.60;1.00
14210;DHT22;7188;56.070;12.698;2023-07-13T12:49:41;21.50;1.00
14210;DHT22;7188;56.070;12.698;2023-07-13T12:52:16;21.20;1.00
14210;DHT22;7188;56.070;12.698;2023-07-13T12:54:42;21.20;1.00
14210;DHT22;7188;56.070;12.698;2023-07-13T12:57:18;21.30;1.00
14210;DHT22;7188;56.070;12.698;2023-07-13T12:59:44;21.40;1.00
14210;DHT22;7188;56.070;12.698;2023-07-13T13:02:29;21.30;1.00
14210;DHT22;7188;56.070;12.698;2023-07-13T13:04:57;21.40;1.00
14210;DHT22;7188;56.070;12.698;2023-07-13T13:07:24;21.40;1.00
14210;DHT22;7188;56.070;12.698;2023-07-13T13:09:50;21.40;1.00
14210;DHT22;7188;56.070;12.698;2023-07-13T13:12:16;21.40;1.00
14210;DHT22;7188;56.070;12.698;2023-07-13T13:14:42;21.30;1.00
14210;DHT22;7188;56.070;12.698;2023-07-13T13:17:23;21.30;1.00
14210;DHT22;7188;56.070;12.698;2023-07-13T13:19:51;21.40;1.00
14210;DHT22;7188;56.070;12.698;2023-07-13T13:22:20;21.30;1.00
14210;DHT22;7188;56.070;12.698;2023-07-13T13:24:45;21.30;1.00
14210;DHT22;7188;56.070;12.698;2023-07-13T13:27:20;21.30;1.00
14210;DHT22;7188;56.070;12.698;2023-07-13T13:29:49;21.30;1.00
14210;DHT22;7188;56.070;12.698;2023-07-13T13:32:17;21.60;1.00
14210;DHT22;7188;56.070;12.698;2023-07-13T13:34:42;21.80;1.00
14210;DHT22;7188;56.070;12.698;2023-07-13T13:37:22;21.90;1.00
14210;DHT22;7188;56.070;12.698;2023-07-13T13:39:49;22.00;1.00
14210;DHT22;7188;56.070;12.698;2023-07-13T13:42:15;22.00;1.00
14210;DHT22;7188;56.070;12.698;2023-07-13T13:44:40;22.40;1.00
14210;DHT22;7188;56.070;12.698;2023-07-13T13:47:31;22.60;1.00
14210;DHT22;7188;56.070;12.698;2023-07-13T13:50:29;22.80;1.00
14210;DHT22;7188;56.070;12.698;2023-07-13T13:52:55;22.70;1.00
14210;DHT22;7188;56.070;12.698;2023-07-13T13:55:21;22.40;1.00
14210;DHT22;7188;56.070;12.698;2023-07-13T13:57:49;22.20;1.00
14210;DHT22;7188;56.070;12.698;2023-07-13T14:00:16;22.00;1.00
14210;DHT22;7188;56.070;12.698;2023-07-13T14:02:46;21.80;1.00
14210;DHT22;7188;56.070;12.698;2023-07-13T14:05:15;21.70;1.00
14210;DHT22;7188;56.070;12.698;2023-07-13T14:07:41;21.60;1.00
14210;DHT22;7188;56.070;12.698;2023-07-13T14:10:18;21.40;1.00
14210;DHT22;7188;56.070;12.698;2023-07-13T14:12:50;21.20;1.00
14210;DHT22;7188;56.070;12.698;2023-07-13T14:15:27;21.10;1.00
14210;DHT22;7188;56.070;12.698;2023-07-13T14:17:54;20.90;22.20
14210;DHT22;7188;56.070;12.698;2023-07-13T14:20:21;20.70;33.40
14210;DHT22;7188;56.070;12.698;2023-07-13T14:22:52;20.40;68.10
14210;DHT22;7188;56.070;12.698;2023-07-13T14:25:19;20.40;99.90
14210;DHT22;7188;56.070;12.698;2023-07-13T14:27:46;20.50;82.60
14210;DHT22;7188;56.070;12.698;2023-07-13T14:30:15;20.70;99.90
14210;DHT22;7188;56.070;12.698;2023-07-13T14:32:41;20.50;36.30
14210;DHT22;7188;56.070;12.698;2023-07-13T14:35:18;20.30;99.90
14210;DHT22;7188;56.070;12.698;2023-07-13T14:37:46;20.30;99.90
14210;DHT22;7188;56.070;12.698;2023-07-13T14:40:21;20.20;99.90
14210;DHT22;7188;56.070;12.698;2023-07-13T14:42:47;20.00;99.90
14210;DHT22;7188;56.070;12.698;2023-07-13T14:45:19;20.00;99.90
14210;DHT22;7188;56.070;12.698;2023-07-13T14:47:45;19.90;99.90
14210;DHT22;7188;56.070;12.698;2023-07-13T14:50:14;19.80;99.90
14210;DHT22;7188;56.070;12.698;2023-07-13T14:52:41;19.80;99.90
14210;DHT22;7188;56.070;12.698;2023-07-13T14:55:14;19.80;99.90
14210;DHT22;7188;56.070;12.698;2023-07-13T14:57:40;19.60;99.90
14210;DHT22;7188;56.070;12.698;2023-07-13T15:00:17;19.80;99.90
14210;DHT22;7188;56.070;12.698;2023-07-13T15:02:47;20.00;99.90
14210;DHT22;7188;56.070;12.698;2023-07-13T15:05:19;20.10;99.90
14210;DHT22;7188;56.070;12.698;2023-07-13T15:07:47;20.20;99.90
14210;DHT22;7188;56.070;12.698;2023-07-13T15:10:20;20.30;99.90
14210;DHT22;7188;56.070;12.698;2023-07-13T15:12:47;20.30;1.00
14210;DHT22;7188;56.070;12.698;2023-07-13T15:15:13;20.30;1.00
14210;DHT22;7188;56.070;12.698;2023-07-13T15:17:41;20.20;1.00
14210;DHT22;7188;56.070;12.698;2023-07-13T15:20:25;20.20;1.00
14210;DHT22;7188;56.070;12.698;2023-07-13T15:22:51;20.10;1.00
14210;DHT22;7188;56.070;12.698;2023-07-13T15:25:29;20.10;1.00
14210;DHT22;7188;56.070;12.698;2023-07-13T15:27:57;20.10;1.00
14210;DHT22;7188;56.070;12.698;2023-07-13T15:30:26;20.20;1.00
14210;DHT22;7188;56.070;12.698;2023-07-13T15:32:52;20.20;1.00
14210;DHT22;7188;56.070;12.698;2023-07-13T15:35:22;20.30;1.00
14210;DHT22;7188;56.070;12.698;2023-07-13T15:37:49;20.40;1.00
14210;DHT22;7188;56.070;12.698;2023-07-13T15:40:16;20.40;1.00
14210;DHT22;7188;56.070;12.698;2023-07-13T15:42:43;20.60;1.00
14210;DHT22;7188;56.070;12.698;2023-07-13T15:45:23;20.80;1.00
14210;DHT22;7188;56.070;12.698;2023-07-13T15:47:52;21.00;1.00
14210;DHT22;7188;56.070;12.698;2023-07-13T15:50:21;21.10;1.00
14210;DHT22;7188;56.070;12.698;2023-07-13T15:52:50;21.10;1.00
14210;DHT22;7188;56.070;12.698;2023-07-13T15:55:17;21.10;1.00
14210;DHT22;7188;56.070;12.698;2023-07-13T15:57:49;21.00;1.00
14210;DHT22;7188;56.070;12.698;2023-07-13T16:00:26;21.00;1.00
14210;DHT22;7188;56.070;12.698;2023-07-13T16:02:52;20.90;1.00
14210;DHT22;7188;56.070;12.698;2023-07-13T16:05:20;20.90;1.00
14210;DHT22;7188;56.070;12.698;2023-07-13T16:07:49;21.00;1.00
14210;DHT22;7188;56.070;12.698;2023-07-13T16:10:19;21.20;1.00
14210;DHT22;7188;56.070;12.698;2023-07-13T16:12:46;21.30;1.00
14210;DHT22;7188;56.070;12.698;2023-07-13T16:15:14;21.30;1.00